PRIVATE WETTERSTATION BILLIGHEIM-ALLFELD                       ZURCK
Wetterdaten: Donnerstag, 27.01.2022
Datum Zeit Temp. A. Temp. A. min Temp. A. max Feuchte A. Luftdruck Regen Wind Richtung Richtung Sonnenschein ET Solar Taupunkt Windchill Windben Empfang
27.01.2022 00:00 -1,6 C -1,6 C -1,4 C 93 % 1031,1 hPa 0,0 l/m 4,8 km/h (1 Bft) SW 225 0 min 0,000 mm 0 W/m -2,6 C -1,6 C 17,7 km/h (3 Bft) 100 %
27.01.2022 00:10 -1,6 C -1,6 C -1,6 C 93 % 1031,2 hPa 0,0 l/m 1,6 km/h (1 Bft) SW 225 0 min 0,000 mm 0 W/m -2,6 C -1,6 C 11,3 km/h (2 Bft) 100 %
27.01.2022 00:20 -1,7 C -1,7 C -1,6 C 93 % 1031,2 hPa 0,0 l/m 1,6 km/h (1 Bft) SW 225 0 min 0,000 mm 0 W/m -2,7 C -1,7 C 11,3 km/h (2 Bft) 100 %
27.01.2022 00:30 -1,7 C -1,7 C -1,7 C 93 % 1031,0 hPa 0,0 l/m 4,8 km/h (1 Bft) W-SW 247 0 min 0,000 mm 0 W/m -2,7 C -1,7 C 16,1 km/h (3 Bft) 100 %
27.01.2022 00:40 -1,8 C -1,8 C -1,7 C 93 % 1031,0 hPa 0,0 l/m 8,0 km/h (2 Bft) SW 225 0 min 0,000 mm 0 W/m -2,8 C -3,5 C 20,9 km/h (4 Bft) 100 %
27.01.2022 00:50 -1,8 C -1,8 C -1,8 C 93 % 1031,0 hPa 0,0 l/m 4,8 km/h (1 Bft) W-SW 247 0 min 0,000 mm 0 W/m -2,8 C -1,8 C 11,3 km/h (2 Bft) 100 %
27.01.2022 01:00 -1,8 C -1,8 C -1,8 C 93 % 1030,7 hPa 0,0 l/m 4,8 km/h (1 Bft) W 270 0 min 0,000 mm 0 W/m -2,8 C -1,8 C 11,3 km/h (2 Bft) 100 %
27.01.2022 01:10 -1,8 C -1,8 C -1,8 C 93 % 1030,8 hPa 0,0 l/m 4,8 km/h (1 Bft) W-SW 247 0 min 0,000 mm 0 W/m -2,8 C -1,8 C 19,3 km/h (3 Bft) 100 %
27.01.2022 01:20 -1,9 C -1,9 C -1,8 C 93 % 1031,0 hPa 0,0 l/m 6,4 km/h (2 Bft) W-SW 247 0 min 0,000 mm 0 W/m -2,9 C -1,9 C 16,1 km/h (3 Bft) 100 %
27.01.2022 01:30 -2,0 C -2,0 C -1,9 C 93 % 1031,0 hPa 0,0 l/m 4,8 km/h (1 Bft) W 270 0 min 0,000 mm 0 W/m -3,0 C -2,0 C 19,3 km/h (3 Bft) 100 %
27.01.2022 01:40 -2,0 C -2,0 C -2,0 C 93 % 1031,0 hPa 0,0 l/m 6,4 km/h (2 Bft) W 270 0 min 0,000 mm 0 W/m -3,0 C -2,0 C 11,3 km/h (2 Bft) 100 %
27.01.2022 01:50 -2,1 C -2,1 C -2,0 C 93 % 1030,8 hPa 0,0 l/m 8,0 km/h (2 Bft) W-SW 247 0 min 0,000 mm 0 W/m -3,1 C -3,9 C 16,1 km/h (3 Bft) 100 %
27.01.2022 02:00 -2,1 C -2,1 C -2,1 C 93 % 1030,7 hPa 0,0 l/m 6,4 km/h (2 Bft) SW 225 0 min 0,000 mm 0 W/m -3,1 C -2,1 C 14,5 km/h (3 Bft) 99 %
27.01.2022 02:10 -2,1 C -2,1 C -2,1 C 93 % 1030,7 hPa 0,0 l/m 6,4 km/h (2 Bft) SW 225 0 min 0,000 mm 0 W/m -3,1 C -2,1 C 16,1 km/h (3 Bft) 100 %
27.01.2022 02:20 -2,2 C -2,2 C -2,1 C 93 % 1030,6 hPa 0,0 l/m 8,0 km/h (2 Bft) W-SW 247 0 min 0,000 mm 0 W/m -3,2 C -4,0 C 17,7 km/h (3 Bft) 100 %
27.01.2022 02:30 -2,3 C -2,3 C -2,2 C 93 % 1030,4 hPa 0,0 l/m 8,0 km/h (2 Bft) W-SW 247 0 min 0,000 mm 0 W/m -3,3 C -4,1 C 20,9 km/h (4 Bft) 100 %
27.01.2022 02:40 -2,3 C -2,3 C -2,3 C 93 % 1030,3 hPa 0,0 l/m 6,4 km/h (2 Bft) W-SW 247 0 min 0,000 mm 0 W/m -3,3 C -2,3 C 17,7 km/h (3 Bft) 100 %
27.01.2022 02:50 -2,3 C -2,3 C -2,3 C 93 % 1030,4 hPa 0,0 l/m 4,8 km/h (1 Bft) W-SW 247 0 min 0,000 mm 0 W/m -3,3 C -2,3 C 16,1 km/h (3 Bft) 100 %
27.01.2022 03:00 -2,3 C -2,3 C -2,3 C 93 % 1030,3 hPa 0,0 l/m 8,0 km/h (2 Bft) SW 225 0 min 0,000 mm 0 W/m -3,3 C -4,1 C 17,7 km/h (3 Bft) 100 %
27.01.2022 03:10 -2,3 C -2,3 C -2,3 C 93 % 1030,3 hPa 0,0 l/m 4,8 km/h (1 Bft) W 270 0 min 0,000 mm 0 W/m -3,3 C -2,3 C 16,1 km/h (3 Bft) 100 %
27.01.2022 03:20 -2,4 C -2,4 C -2,3 C 93 % 1030,3 hPa 0,0 l/m 6,4 km/h (2 Bft) W-SW 247 0 min 0,000 mm 0 W/m -3,4 C -2,4 C 17,7 km/h (3 Bft) 100 %
27.01.2022 03:30 -2,4 C -2,4 C -2,4 C 93 % 1030,5 hPa 0,0 l/m 6,4 km/h (2 Bft) W 270 0 min 0,000 mm 0 W/m -3,4 C -2,4 C 17,7 km/h (3 Bft) 100 %
27.01.2022 03:40 -2,4 C -2,4 C -2,4 C 93 % 1030,4 hPa 0,0 l/m 6,4 km/h (2 Bft) W 270 0 min 0,000 mm 0 W/m -3,4 C -2,4 C 17,7 km/h (3 Bft) 100 %
27.01.2022 03:50 -2,4 C -2,4 C -2,4 C 93 % 1030,3 hPa 0,0 l/m 4,8 km/h (1 Bft) W-SW 247 0 min 0,000 mm 0 W/m -3,4 C -2,4 C 12,9 km/h (3 Bft) 100 %
27.01.2022 04:00 -2,4 C -2,4 C -2,3 C 93 % 1030,2 hPa 0,0 l/m 6,4 km/h (2 Bft) W-SW 247 0 min 0,000 mm 0 W/m -3,4 C -2,4 C 19,3 km/h (3 Bft) 100 %
27.01.2022 04:10 -2,4 C -2,4 C -2,4 C 93 % 1030,1 hPa 0,0 l/m 6,4 km/h (2 Bft) W-SW 247 0 min 0,000 mm 0 W/m -3,4 C -2,4 C 20,9 km/h (4 Bft) 100 %
27.01.2022 04:20 -2,4 C -2,4 C -2,4 C 93 % 1030,0 hPa 0,0 l/m 6,4 km/h (2 Bft) SW 225 0 min 0,000 mm 0 W/m -3,4 C -2,4 C 16,1 km/h (3 Bft) 100 %
27.01.2022 04:30 -2,6 C -2,6 C -2,4 C 93 % 1029,9 hPa 0,0 l/m 8,0 km/h (2 Bft) SW 225 0 min 0,000 mm 0 W/m -3,6 C -4,4 C 19,3 km/h (3 Bft) 100 %
27.01.2022 04:40 -2,6 C -2,6 C -2,6 C 93 % 1029,7 hPa 0,0 l/m 8,0 km/h (2 Bft) SW 225 0 min 0,000 mm 0 W/m -3,6 C -4,4 C 20,9 km/h (4 Bft) 100 %
27.01.2022 04:50 -2,6 C -2,6 C -2,6 C 93 % 1029,7 hPa 0,0 l/m 9,7 km/h (2 Bft) SW 225 0 min 0,000 mm 0 W/m -3,6 C -6,0 C 20,9 km/h (4 Bft) 100 %
27.01.2022 05:00 -2,6 C -2,6 C -2,6 C 93 % 1029,6 hPa 0,0 l/m 8,0 km/h (2 Bft) SW 225 0 min 0,000 mm 0 W/m -3,6 C -4,4 C 19,3 km/h (3 Bft) 100 %
27.01.2022 05:10 -2,6 C -2,6 C -2,6 C 93 % 1029,8 hPa 0,0 l/m 8,0 km/h (2 Bft) SW 225 0 min 0,000 mm 0 W/m -3,6 C -4,4 C 17,7 km/h (3 Bft) 100 %
27.01.2022 05:20 -2,6 C -2,6 C -2,6 C 93 % 1029,7 hPa 0,0 l/m 6,4 km/h (2 Bft) W-SW 247 0 min 0,000 mm 0 W/m -3,6 C -2,6 C 19,3 km/h (3 Bft) 100 %
27.01.2022 05:30 -2,5 C -2,6 C -2,5 C 93 % 1029,8 hPa 0,0 l/m 6,4 km/h (2 Bft) SW 225 0 min 0,000 mm 0 W/m -3,5 C -2,5 C 17,7 km/h (3 Bft) 100 %
27.01.2022 05:40 -2,5 C -2,5 C -2,5 C 93 % 1029,6 hPa 0,0 l/m 8,0 km/h (2 Bft) SW 225 0 min 0,000 mm 0 W/m -3,5 C -4,3 C 17,7 km/h (3 Bft) 100 %
27.01.2022 05:50 -2,6 C -2,6 C -2,5 C 93 % 1029,4 hPa 0,0 l/m 6,4 km/h (2 Bft) S-SW 202 0 min 0,000 mm 0 W/m -3,6 C -2,6 C 14,5 km/h (3 Bft) 89 %
27.01.2022 06:00 -2,5 C -2,6 C -2,5 C 93 % 1029,4 hPa 0,0 l/m 8,0 km/h (2 Bft) SW 225 0 min 0,000 mm 0 W/m -3,5 C -4,3 C 17,7 km/h (3 Bft) 100 %
27.01.2022 06:10 -2,5 C -2,6 C -2,5 C 93 % 1029,5 hPa 0,0 l/m 8,0 km/h (2 Bft) W-SW 247 0 min 0,000 mm 0 W/m -3,5 C -4,3 C 22,5 km/h (4 Bft) 100 %
27.01.2022 06:20 -2,6 C -2,6 C -2,5 C 93 % 1029,2 hPa 0,0 l/m 8,0 km/h (2 Bft) SW 225 0 min 0,000 mm 0 W/m -3,6 C -4,4 C 20,9 km/h (4 Bft) 100 %
27.01.2022 06:30 -2,6 C -2,6 C -2,6 C 93 % 1029,4 hPa 0,0 l/m 9,7 km/h (2 Bft) W-SW 247 0 min 0,000 mm 0 W/m -3,6 C -6,0 C 19,3 km/h (3 Bft) 100 %
27.01.2022 06:40 -2,6 C -2,6 C -2,6 C 93 % 1029,3 hPa 0,0 l/m 8,0 km/h (2 Bft) SW 225 0 min 0,000 mm 0 W/m -3,6 C -4,4 C 17,7 km/h (3 Bft) 99 %
27.01.2022 06:50 -2,5 C -2,6 C -2,5 C 93 % 1029,3 hPa 0,0 l/m 6,4 km/h (2 Bft) W-SW 247 0 min 0,000 mm 0 W/m -3,5 C -2,5 C 20,9 km/h (4 Bft) 100 %
27.01.2022 07:00 -2,4 C -2,5 C -2,4 C 93 % 1029,4 hPa 0,0 l/m 8,0 km/h (2 Bft) W-SW 247 0 min 0,000 mm 0 W/m -3,4 C -4,2 C 17,7 km/h (3 Bft) 100 %
27.01.2022 07:10 -2,5 C -2,5 C -2,4 C 93 % 1029,4 hPa 0,0 l/m 9,7 km/h (2 Bft) W-SW 247 0 min 0,000 mm 0 W/m -3,5 C -5,9 C 20,9 km/h (4 Bft) 100 %
27.01.2022 07:20 -2,5 C -2,5 C -2,5 C 93 % 1029,3 hPa 0,0 l/m 11,3 km/h (2 Bft) W-SW 247 0 min 0,000 mm 0 W/m -3,5 C -7,3 C 22,5 km/h (4 Bft) 100 %
27.01.2022 07:30 -2,5 C -2,5 C -2,5 C 93 % 1029,4 hPa 0,0 l/m 12,9 km/h (3 Bft) SW 225 0 min 0,000 mm 0 W/m -3,5 C -8,6 C 29,0 km/h (5 Bft) 100 %
27.01.2022 07:40 -2,5 C -2,5 C -2,5 C 93 % 1029,5 hPa 0,0 l/m 6,4 km/h (2 Bft) W-SW 247 0 min 0,000 mm 0 W/m -3,5 C -2,5 C 22,5 km/h (4 Bft) 100 %
27.01.2022 07:50 -2,5 C -2,5 C -2,5 C 93 % 1029,4 hPa 0,0 l/m 8,0 km/h (2 Bft) W-SW 247 0 min 0,000 mm 0 W/m -3,5 C -4,3 C 27,4 km/h (4 Bft) 100 %
27.01.2022 08:00 -2,5 C -2,5 C -2,5 C 93 % 1029,7 hPa 0,0 l/m 4,8 km/h (1 Bft) W-SW 247 0 min 0,000 mm 0 W/m -3,5 C -2,5 C 17,7 km/h (3 Bft) 100 %
27.01.2022 08:10 -2,4 C -2,5 C -2,4 C 93 % 1029,6 hPa 0,0 l/m 6,4 km/h (2 Bft) W-SW 247 0 min 0,000 mm 0 W/m -3,4 C -2,4 C 16,1 km/h (3 Bft) 99 %
27.01.2022 08:20 -2,4 C -2,4 C -2,4 C 93 % 1029,7 hPa 0,0 l/m 3,2 km/h (1 Bft) W-SW 247 0 min 0,000 mm 0 W/m -3,4 C -2,4 C 17,7 km/h (3 Bft) 100 %
27.01.2022 08:30 -2,4 C -2,4 C -2,4 C 93 % 1029,7 hPa 0,0 l/m 8,0 km/h (2 Bft) SW 225 0 min 0,000 mm 0 W/m -3,4 C -4,2 C 19,3 km/h (3 Bft) 100 %
27.01.2022 08:40 -2,4 C -2,4 C -2,4 C 93 % 1029,5 hPa 0,0 l/m 4,8 km/h (1 Bft) W-SW 247 0 min 0,000 mm 5 W/m -3,4 C -2,4 C 27,4 km/h (4 Bft) 100 %
27.01.2022 08:50 -2,3 C -2,4 C -2,3 C 93 % 1029,3 hPa 0,0 l/m 4,8 km/h (1 Bft) SW 225 0 min 0,000 mm 9 W/m -3,3 C -2,3 C 16,1 km/h (3 Bft) 100 %
27.01.2022 09:00 -2,3 C -2,3 C -2,3 C 93 % 1029,2 hPa 0,0 l/m 3,2 km/h (1 Bft) SW 225 0 min 0,000 mm 9 W/m -3,3 C -2,3 C 17,7 km/h (3 Bft) 100 %
27.01.2022 09:10 -2,3 C -2,3 C -2,3 C 93 % 1029,2 hPa 0,0 l/m 4,8 km/h (1 Bft) SW 225 0 min 0,000 mm 11 W/m -3,3 C -2,3 C 19,3 km/h (3 Bft) 100 %
27.01.2022 09:20 -2,3 C -2,3 C -2,3 C 93 % 1029,3 hPa 0,0 l/m 4,8 km/h (1 Bft) SW 225 0 min 0,000 mm 18 W/m -3,3 C -2,3 C 19,3 km/h (3 Bft) 99 %
27.01.2022 09:30 -2,3 C -2,3 C -2,3 C 93 % 1029,1 hPa 0,0 l/m 4,8 km/h (1 Bft) S-SW 202 0 min 0,000 mm 19 W/m -3,3 C -2,3 C 17,7 km/h (3 Bft) 100 %
27.01.2022 09:40 -2,2 C -2,3 C -2,2 C 93 % 1029,0 hPa 0,0 l/m 4,8 km/h (1 Bft) SW 225 0 min 0,000 mm 21 W/m -3,2 C -2,2 C 14,5 km/h (3 Bft) 100 %
27.01.2022 09:50 -2,2 C -2,3 C -2,2 C 93 % 1028,9 hPa 0,0 l/m 8,0 km/h (2 Bft) SW 225 0 min 0,000 mm 26 W/m -3,2 C -4,0 C 20,9 km/h (4 Bft) 100 %
27.01.2022 10:00 -2,2 C -2,2 C -2,2 C 93 % 1028,9 hPa 0,0 l/m 8,0 km/h (2 Bft) SW 225 0 min 0,000 mm 26 W/m -3,2 C -4,0 C 25,7 km/h (4 Bft) 100 %
27.01.2022 10:10 -2,2 C -2,2 C -2,2 C 92 % 1028,9 hPa 0,0 l/m 1,6 km/h (1 Bft) SW 225 0 min 0,000 mm 23 W/m -3,3 C -2,2 C 16,1 km/h (3 Bft) 100 %
27.01.2022 10:20 -2,2 C -2,2 C -2,2 C 92 % 1028,9 hPa 0,0 l/m 6,4 km/h (2 Bft) SW 225 0 min 0,000 mm 28 W/m -3,3 C -2,2 C 20,9 km/h (4 Bft) 100 %
27.01.2022 10:30 -2,2 C -2,2 C -2,2 C 92 % 1028,8 hPa 0,0 l/m 8,0 km/h (2 Bft) SW 225 0 min 0,000 mm 30 W/m -3,3 C -4,0 C 22,5 km/h (4 Bft) 99 %
27.01.2022 10:40 -2,2 C -2,2 C -2,2 C 92 % 1028,8 hPa 0,0 l/m 6,4 km/h (2 Bft) S-SW 202 0 min 0,000 mm 35 W/m -3,3 C -2,2 C 22,5 km/h (4 Bft) 90 %
27.01.2022 10:50 -2,2 C -2,2 C -2,2 C 92 % 1028,8 hPa 0,0 l/m 9,7 km/h (2 Bft) SW 225 0 min 0,000 mm 33 W/m -3,3 C -5,6 C 24,1 km/h (4 Bft) 100 %
27.01.2022 11:00 -2,1 C -2,2 C -2,1 C 92 % 1028,9 hPa 0,0 l/m 6,4 km/h (2 Bft) SW 225 0 min 0,000 mm 37 W/m -3,2 C -2,1 C 19,3 km/h (3 Bft) 100 %
27.01.2022 11:10 -2,1 C -2,2 C -2,1 C 92 % 1028,9 hPa 0,0 l/m 9,7 km/h (2 Bft) SW 225 0 min 0,000 mm 39 W/m -3,2 C -5,5 C 24,1 km/h (4 Bft) 100 %
27.01.2022 11:20 -2,1 C -2,1 C -2,1 C 92 % 1028,8 hPa 0,1 l/m 6,4 km/h (2 Bft) SW 225 0 min 0,000 mm 42 W/m -3,2 C -2,1 C 22,5 km/h (4 Bft) 100 %
27.01.2022 11:30 -2,1 C -2,1 C -2,1 C 92 % 1028,9 hPa 0,0 l/m 9,7 km/h (2 Bft) SW 225 0 min 0,000 mm 39 W/m -3,2 C -5,5 C 30,6 km/h (5 Bft) 100 %
27.01.2022 11:40 -2,0 C -2,1 C -2,0 C 92 % 1028,8 hPa 0,0 l/m 9,7 km/h (2 Bft) SW 225 0 min 0,000 mm 39 W/m -3,1 C -5,4 C 24,1 km/h (4 Bft) 100 %
27.01.2022 12:00 -1,9 C -2,1 C -1,9 C 92 % 1028,5 hPa 0,0 l/m 4,2 km/h (1 Bft) SW 235 0 min 0,025 mm 44 W/m -3,0 C -1,9 C 12,9 km/h (3 Bft) 99 %
27.01.2022 12:10 -1,9 C -1,9 C -1,9 C 92 % 1028,5 hPa 0,0 l/m 5,3 km/h (1 Bft) SW 231 0 min 0,000 mm 44 W/m -3,0 C -1,9 C 20,9 km/h (4 Bft) 100 %
27.01.2022 12:20 -1,9 C -1,9 C -1,9 C 92 % 1028,4 hPa 0,0 l/m 9,0 km/h (2 Bft) S-SW 202 0 min 0,000 mm 54 W/m -3,0 C -4,6 C 24,1 km/h (4 Bft) 100 %
27.01.2022 12:30 -1,8 C -1,9 C -1,8 C 92 % 1028,2 hPa 0,0 l/m 8,4 km/h (2 Bft) SW 231 0 min 0,000 mm 70 W/m -2,9 C -3,9 C 24,1 km/h (4 Bft) 100 %
27.01.2022 12:40 -1,7 C -1,8 C -1,7 C 92 % 1028,2 hPa 0,0 l/m 6,6 km/h (2 Bft) S-SW 201 0 min 0,000 mm 67 W/m -2,8 C -1,9 C 19,3 km/h (3 Bft) 100 %
27.01.2022 12:50 -1,6 C -1,7 C -1,6 C 92 % 1028,1 hPa 0,0 l/m 6,2 km/h (2 Bft) SW 218 0 min 0,000 mm 46 W/m -2,7 C -1,6 C 20,9 km/h (4 Bft) 100 %
27.01.2022 13:00 -1,4 C -1,6 C -1,4 C 92 % 1028,1 hPa 0,0 l/m 6,3 km/h (2 Bft) SW 225 0 min 0,026 mm 47 W/m -2,5 C -1,4 C 17,7 km/h (3 Bft) 100 %
27.01.2022 13:10 -1,3 C -1,4 C -1,3 C 92 % 1027,9 hPa 0,0 l/m 6,7 km/h (2 Bft) W-SW 250 0 min 0,000 mm 46 W/m -2,4 C -1,6 C 20,9 km/h (4 Bft) 100 %
27.01.2022 13:20 -1,2 C -1,3 C -1,2 C 92 % 1028,1 hPa 0,0 l/m 6,9 km/h (2 Bft) SW 229 0 min 0,000 mm 49 W/m -2,3 C -1,7 C 20,9 km/h (4 Bft) 100 %
27.01.2022 13:30 -1,1 C -1,2 C -1,1 C 93 % 1027,9 hPa 0,0 l/m 6,6 km/h (2 Bft) W-SW 254 0 min 0,000 mm 53 W/m -2,1 C -1,3 C 17,7 km/h (3 Bft) 100 %
27.01.2022 13:40 -1,0 C -1,1 C -1,0 C 93 % 1027,6 hPa 0,1 l/m 7,8 km/h (2 Bft) S-SW 210 0 min 0,000 mm 51 W/m -2,0 C -2,5 C 17,7 km/h (3 Bft) 100 %
27.01.2022 13:50 -0,8 C -1,0 C -0,8 C 93 % 1027,3 hPa 0,0 l/m 8,5 km/h (2 Bft) S-SW 209 0 min 0,000 mm 60 W/m -1,8 C -3,0 C 27,4 km/h (4 Bft) 100 %
27.01.2022 14:00 -0,7 C -0,8 C -0,7 C 93 % 1027,2 hPa 0,0 l/m 8,1 km/h (2 Bft) W-SW 253 0 min 0,025 mm 33 W/m -1,7 C -2,5 C 25,7 km/h (4 Bft) 100 %
27.01.2022 14:10 -0,7 C -0,7 C -0,7 C 93 % 1027,1 hPa 0,0 l/m 9,0 km/h (2 Bft) W-SW 254 0 min 0,000 mm 42 W/m -1,7 C -3,3 C 19,3 km/h (3 Bft) 100 %
27.01.2022 14:20 -0,6 C -0,7 C -0,6 C 93 % 1026,9 hPa 0,0 l/m 9,4 km/h (2 Bft) SW 232 0 min 0,000 mm 39 W/m -1,6 C -3,6 C 29,0 km/h (5 Bft) 100 %
27.01.2022 14:30 -0,4 C -0,6 C -0,4 C 93 % 1026,7 hPa 0,0 l/m 6,1 km/h (2 Bft) SW 231 0 min 0,000 mm 30 W/m -1,4 C -0,4 C 19,3 km/h (3 Bft) 100 %
27.01.2022 14:40 -0,4 C -0,4 C -0,4 C 93 % 1026,7 hPa 0,0 l/m 7,5 km/h (2 Bft) W-SW 238 0 min 0,000 mm 30 W/m -1,4 C -1,6 C 22,5 km/h (4 Bft) 100 %
27.01.2022 14:50 -0,3 C -0,4 C -0,3 C 93 % 1026,7 hPa 0,0 l/m 9,9 km/h (2 Bft) SW 216 0 min 0,000 mm 44 W/m -1,3 C -3,7 C 22,5 km/h (4 Bft) 100 %
27.01.2022 15:00 -0,2 C -0,3 C -0,2 C 93 % 1026,3 hPa 0,0 l/m 9,9 km/h (2 Bft) SW 225 0 min 0,026 mm 33 W/m -1,2 C -3,6 C 24,1 km/h (4 Bft) 100 %
27.01.2022 15:10 -0,2 C -0,2 C -0,2 C 93 % 1026,7 hPa 0,0 l/m 10,7 km/h (2 Bft) W 274 0 min 0,000 mm 32 W/m -1,2 C -4,2 C 22,5 km/h (4 Bft) 99 %
27.01.2022 15:20 -0,1 C -0,2 C -0,1 C 93 % 1026,7 hPa 0,0 l/m 7,9 km/h (2 Bft) SW 219 0 min 0,000 mm 19 W/m -1,1 C -1,7 C 22,5 km/h (4 Bft) 100 %
27.01.2022 15:30 -0,1 C -0,1 C -0,1 C 93 % 1026,8 hPa 0,0 l/m 10,7 km/h (2 Bft) W 265 0 min 0,000 mm 14 W/m -1,1 C -4,1 C 19,3 km/h (3 Bft) 100 %
27.01.2022 15:40 0,0 C -0,1 C 0,0 C 93 % 1026,4 hPa 0,0 l/m 9,4 km/h (2 Bft) SW 215 0 min 0,000 mm 16 W/m -1,0 C -2,9 C 25,7 km/h (4 Bft) 100 %
27.01.2022 15:50 0,1 C 0,0 C 0,1 C 93 % 1026,6 hPa 0,0 l/m 8,4 km/h (2 Bft) SW 235 0 min 0,000 mm 21 W/m -0,9 C -1,9 C 20,9 km/h (4 Bft) 100 %
27.01.2022 16:00 0,2 C 0,1 C 0,2 C 93 % 1026,6 hPa 0,0 l/m 8,3 km/h (2 Bft) W-SW 256 0 min 0,000 mm 18 W/m -0,8 C -1,7 C 24,1 km/h (4 Bft) 100 %
27.01.2022 16:10 0,3 C 0,2 C 0,3 C 93 % 1026,7 hPa 0,0 l/m 8,3 km/h (2 Bft) SW 219 0 min 0,000 mm 14 W/m -0,7 C -1,6 C 24,1 km/h (4 Bft) 100 %
27.01.2022 16:20 0,3 C 0,3 C 0,3 C 93 % 1026,7 hPa 0,0 l/m 7,8 km/h (2 Bft) W 273 0 min 0,000 mm 11 W/m -0,7 C -1,1 C 19,3 km/h (3 Bft) 100 %
27.01.2022 16:30 0,3 C 0,3 C 0,4 C 93 % 1026,7 hPa 0,0 l/m 5,5 km/h (1 Bft) SW 223 0 min 0,000 mm 11 W/m -0,7 C 0,3 C 17,7 km/h (3 Bft) 100 %
27.01.2022 16:40 0,4 C 0,3 C 0,4 C 93 % 1026,8 hPa 0,1 l/m 5,4 km/h (1 Bft) W-SW 248 0 min 0,000 mm 5 W/m -0,6 C 0,4 C 16,1 km/h (3 Bft) 99 %
27.01.2022 16:50 0,4 C 0,4 C 0,4 C 93 % 1026,8 hPa 0,0 l/m 5,3 km/h (1 Bft) W-SW 252 0 min 0,000 mm 0 W/m -0,6 C 0,4 C 16,1 km/h (3 Bft) 100 %
27.01.2022 17:00 0,4 C 0,4 C 0,4 C 93 % 1026,7 hPa 0,0 l/m 7,1 km/h (2 Bft) SW 221 0 min 0,000 mm 0 W/m -0,6 C -0,3 C 22,5 km/h (4 Bft) 100 %
27.01.2022 17:10 0,4 C 0,4 C 0,4 C 93 % 1026,5 hPa 0,0 l/m 10,0 km/h (2 Bft) W-SW 250 0 min 0,000 mm 0 W/m -0,6 C -3,0 C 25,7 km/h (4 Bft) 99 %
27.01.2022 17:20 0,5 C 0,4 C 0,5 C 93 % 1026,2 hPa 0,0 l/m 8,8 km/h (2 Bft) W 260 0 min 0,000 mm 0 W/m -0,5 C -1,9 C 27,4 km/h (4 Bft) 100 %
27.01.2022 17:30 0,6 C 0,5 C 0,6 C 93 % 1026,5 hPa 0,0 l/m 9,9 km/h (2 Bft) SW 236 0 min 0,000 mm 0 W/m -0,4 C -2,7 C 29,0 km/h (5 Bft) 100 %
27.01.2022 17:40 0,6 C 0,6 C 0,6 C 93 % 1026,7 hPa 0,0 l/m 7,3 km/h (2 Bft) SW 233 0 min 0,000 mm 0 W/m -0,4 C -0,3 C 19,3 km/h (3 Bft) 100 %
27.01.2022 17:50 0,6 C 0,6 C 0,6 C 93 % 1026,7 hPa 0,0 l/m 9,6 km/h (2 Bft) W 259 0 min 0,000 mm 0 W/m -0,4 C -2,5 C 29,0 km/h (5 Bft) 100 %
27.01.2022 18:00 0,6 C 0,6 C 0,6 C 93 % 1026,8 hPa 0,0 l/m 9,2 km/h (2 Bft) W 259 0 min 0,000 mm 0 W/m -0,4 C -2,1 C 27,4 km/h (4 Bft) 100 %
27.01.2022 18:10 0,6 C 0,6 C 0,6 C 93 % 1026,8 hPa 0,0 l/m 5,7 km/h (1 Bft) W 275 0 min 0,000 mm 0 W/m -0,4 C 0,6 C 19,3 km/h (3 Bft) 99 %
27.01.2022 18:20 0,6 C 0,6 C 0,6 C 93 % 1026,8 hPa 0,0 l/m 8,3 km/h (2 Bft) W-NW 284 0 min 0,000 mm 0 W/m -0,4 C -1,3 C 27,4 km/h (4 Bft) 98 %
27.01.2022 18:30 0,6 C 0,6 C 0,6 C 93 % 1026,6 hPa 0,0 l/m 7,8 km/h (2 Bft) SW 232 0 min 0,000 mm 0 W/m -0,4 C -0,8 C 27,4 km/h (4 Bft) 100 %
27.01.2022 18:40 0,6 C 0,6 C 0,6 C 93 % 1026,7 hPa 0,0 l/m 7,7 km/h (2 Bft) W 259 0 min 0,000 mm 0 W/m -0,4 C -0,7 C 29,0 km/h (5 Bft) 100 %
27.01.2022 18:50 0,7 C 0,6 C 0,7 C 93 % 1026,7 hPa 0,0 l/m 4,9 km/h (1 Bft) W-SW 239 0 min 0,000 mm 0 W/m -0,3 C 0,7 C 27,4 km/h (4 Bft) 99 %
27.01.2022 19:00 0,7 C 0,7 C 0,7 C 93 % 1026,5 hPa 0,0 l/m 7,9 km/h (2 Bft) W-SW 242 0 min 0,000 mm 0 W/m -0,3 C -0,8 C 19,3 km/h (3 Bft) 100 %
27.01.2022 19:10 0,7 C 0,7 C 0,7 C 93 % 1026,5 hPa 0,0 l/m 7,4 km/h (2 Bft) W 259 0 min 0,000 mm 0 W/m -0,3 C -0,3 C 25,7 km/h (4 Bft) 99 %
27.01.2022 19:20 0,8 C 0,7 C 0,8 C 93 % 1026,5 hPa 0,0 l/m 11,7 km/h (2 Bft) W 274 0 min 0,000 mm 0 W/m -0,2 C -3,9 C 30,6 km/h (5 Bft) 100 %
27.01.2022 19:30 0,8 C 0,8 C 0,8 C 93 % 1026,4 hPa 0,0 l/m 12,7 km/h (3 Bft) W-SW 246 0 min 0,000 mm 0 W/m -0,2 C -4,6 C 30,6 km/h (5 Bft) 99 %
27.01.2022 19:40 0,8 C 0,8 C 0,8 C 93 % 1026,4 hPa 0,0 l/m 12,4 km/h (3 Bft) SW 216 0 min 0,000 mm 0 W/m -0,2 C -4,4 C 35,4 km/h (5 Bft) 100 %
27.01.2022 19:50 0,8 C 0,8 C 0,8 C 93 % 1026,4 hPa 0,0 l/m 10,4 km/h (2 Bft) W 260 0 min 0,000 mm 0 W/m -0,2 C -2,9 C 33,8 km/h (5 Bft) 100 %
27.01.2022 20:00 0,8 C 0,8 C 0,8 C 93 % 1026,7 hPa 0,0 l/m 11,3 km/h (2 Bft) W 266 0 min 0,000 mm 0 W/m -0,2 C -3,6 C 32,2 km/h (5 Bft) 99 %
27.01.2022 20:10 0,8 C 0,8 C 0,9 C 93 % 1026,7 hPa 0,0 l/m 11,4 km/h (2 Bft) W 268 0 min 0,000 mm 0 W/m -0,2 C -3,6 C 30,6 km/h (5 Bft) 99 %
27.01.2022 20:20 0,8 C 0,8 C 0,9 C 93 % 1026,7 hPa 0,0 l/m 12,3 km/h (3 Bft) W 261 0 min 0,000 mm 0 W/m -0,2 C -4,3 C 32,2 km/h (5 Bft) 99 %
27.01.2022 20:30 0,8 C 0,8 C 0,8 C 93 % 1026,7 hPa 0,0 l/m 9,5 km/h (2 Bft) W-SW 253 0 min 0,000 mm 0 W/m -0,2 C -2,2 C 24,1 km/h (4 Bft) 100 %
27.01.2022 20:40 0,8 C 0,8 C 0,8 C 93 % 1026,7 hPa 0,0 l/m 10,8 km/h (2 Bft) SW 231 0 min 0,000 mm 0 W/m -0,2 C -3,2 C 29,0 km/h (5 Bft) 100 %
27.01.2022 20:50 0,7 C 0,7 C 0,8 C 93 % 1026,8 hPa 0,0 l/m 7,9 km/h (2 Bft) SW 232 0 min 0,000 mm 0 W/m -0,3 C -0,8 C 19,3 km/h (3 Bft) 99 %
27.01.2022 21:00 0,7 C 0,7 C 0,7 C 93 % 1026,8 hPa 0,0 l/m 6,9 km/h (2 Bft) W-SW 247 0 min 0,000 mm 0 W/m -0,3 C 0,2 C 22,5 km/h (4 Bft) 99 %
27.01.2022 21:10 0,7 C 0,7 C 0,7 C 93 % 1026,8 hPa 0,0 l/m 9,7 km/h (2 Bft) W-SW 247 0 min 0,000 mm 0 W/m -0,3 C -2,4 C 22,5 km/h (4 Bft) 98 %
27.01.2022 21:20 0,7 C 0,7 C 0,7 C 93 % 1026,9 hPa 0,0 l/m 8,0 km/h (2 Bft) W-SW 247 0 min 0,000 mm 0 W/m -0,3 C -0,9 C 22,5 km/h (4 Bft) 97 %
27.01.2022 21:30 0,7 C 0,7 C 0,8 C 93 % 1026,7 hPa 0,0 l/m 12,9 km/h (3 Bft) W-SW 247 0 min 0,000 mm 0 W/m -0,3 C -4,8 C 27,4 km/h (4 Bft) 98 %
27.01.2022 21:40 0,7 C 0,7 C 0,8 C 93 % 1026,6 hPa 0,0 l/m 11,3 km/h (2 Bft) SW 225 0 min 0,000 mm 0 W/m -0,3 C -3,7 C 27,4 km/h (4 Bft) 88 %
27.01.2022 21:50 0,7 C 0,7 C 0,8 C 93 % 1026,8 hPa 0,0 l/m 12,9 km/h (3 Bft) W-SW 247 0 min 0,000 mm 0 W/m -0,3 C -4,8 C 32,2 km/h (5 Bft) 98 %
27.01.2022 22:00 0,8 C 0,7 C 0,8 C 93 % 1027,0 hPa 0,0 l/m 11,3 km/h (2 Bft) W-SW 247 0 min 0,000 mm 0 W/m -0,2 C -3,6 C 33,8 km/h (5 Bft) 98 %
27.01.2022 22:10 0,7 C 0,7 C 0,8 C 93 % 1027,3 hPa 0,0 l/m 16,1 km/h (3 Bft) W 270 0 min 0,000 mm 0 W/m -0,3 C -6,8 C 32,2 km/h (5 Bft) 98 %
27.01.2022 22:20 0,7 C 0,7 C 0,7 C 93 % 1027,4 hPa 0,0 l/m 12,9 km/h (3 Bft) W 270 0 min 0,000 mm 0 W/m -0,3 C -4,8 C 25,7 km/h (4 Bft) 97 %
27.01.2022 22:30 0,7 C 0,7 C 0,7 C 93 % 1027,2 hPa 0,0 l/m 14,5 km/h (3 Bft) W-SW 247 0 min 0,000 mm 0 W/m -0,3 C -5,8 C 33,8 km/h (5 Bft) 98 %
27.01.2022 22:40 0,7 C 0,7 C 0,7 C 92 % 1027,5 hPa 0,0 l/m 16,1 km/h (3 Bft) W 270 0 min 0,000 mm 0 W/m -0,4 C -6,8 C 35,4 km/h (5 Bft) 98 %
27.01.2022 22:50 0,8 C 0,7 C 0,8 C 92 % 1027,5 hPa 0,0 l/m 16,1 km/h (3 Bft) W 270 0 min 0,000 mm 0 W/m -0,3 C -6,6 C 37,0 km/h (5 Bft) 98 %
27.01.2022 23:00 0,8 C 0,8 C 0,8 C 92 % 1027,4 hPa 0,0 l/m 17,7 km/h (3 Bft) W 270 0 min 0,000 mm 0 W/m -0,3 C -7,5 C 35,4 km/h (5 Bft) 97 %
27.01.2022 23:10 0,9 C 0,8 C 0,9 C 92 % 1027,5 hPa 0,0 l/m 16,1 km/h (3 Bft) W-SW 247 0 min 0,000 mm 0 W/m -0,2 C -6,5 C 35,4 km/h (5 Bft) 88 %
27.01.2022 23:20 0,9 C 0,9 C 0,9 C 93 % 1027,8 hPa 0,0 l/m 19,3 km/h (3 Bft) W 270 0 min 0,000 mm 0 W/m -0,1 C -8,1 C 33,8 km/h (5 Bft) 97 %
27.01.2022 23:30 0,9 C 0,9 C 0,9 C 93 % 1027,8 hPa 0,0 l/m 11,3 km/h (2 Bft) W 270 0 min 0,000 mm 0 W/m -0,1 C -3,5 C 33,8 km/h (5 Bft) 97 %
27.01.2022 23:40 0,9 C 0,9 C 0,9 C 92 % 1027,9 hPa 0,0 l/m 11,3 km/h (2 Bft) W 270 0 min 0,000 mm 0 W/m -0,2 C -3,5 C 29,0 km/h (5 Bft) 97 %
27.01.2022 23:50 0,9 C 0,9 C 0,9 C 92 % 1028,0 hPa 0,0 l/m 12,9 km/h (3 Bft) W 270 0 min 0,000 mm 0 W/m -0,2 C -4,6 C 30,6 km/h (5 Bft) 97 %
_ Min-Zeit 04:30 04:30 04:40 10:10 17:20 - 00:10 - - - - - 04:30 07:30 00:10 23:10
Minimum _ -2,6 C -2,6 C -2,6 C 92 % 1026,2 hPa - 1,6 km/h (1 Bft) - - - - - -3,6 C -8,6 C 11,3 km/h (2 Bft) 88 %
_ Max-Zeit 20:10 23:20 20:10 00:00 00:10 11:20 23:20 - - 00:00 13:00 12:30 23:20 18:50 22:50 00:00
Maximum _ 0,9 C 0,9 C 0,9 C 93 % 1031,2 hPa 0,1 l/m 19,3 km/h
W (3 Bft)
- - 0 min 0,026 mm 70 W/m -0,1 C 0,7 C 37,0 km/h
W-SW (5 Bft)
100 %
Durchschnitt _ -1,1 C -1,1 C -1,0 C 93 % 1028,4 hPa #0,3 l/m 8,1 km/h (2 Bft) SW - #0 min. #0,102 mm 32 W/m -2,1 C -3,0 C 22,3 km/h (4 Bft) 99 %
PRIVATE WETTERSTATION BILLIGHEIM-ALLFELD - www.neckar-odenwald-wetter.de - Holger Sonntag